sensor_id;sensor_type;location;lat;lon;timestamp;P1;durP1;ratioP1;P2;durP2;ratioP2
58982;SDS011;44771;49.982;8.560;2022-12-29T00:01:36;12.90;;;12.10;;
58982;SDS011;44771;49.982;8.560;2022-12-29T00:06:40;13.30;;;12.13;;
58982;SDS011;44771;49.982;8.560;2022-12-29T00:11:42;13.15;;;12.15;;
58982;SDS011;44771;49.982;8.560;2022-12-29T00:16:44;12.90;;;11.68;;
58982;SDS011;44771;49.982;8.560;2022-12-29T00:21:47;12.85;;;11.85;;
58982;SDS011;44771;49.982;8.560;2022-12-29T00:26:49;14.20;;;13.02;;
58982;SDS011;44771;49.982;8.560;2022-12-29T00:31:58;13.00;;;12.15;;
58982;SDS011;44771;49.982;8.560;2022-12-29T00:37:02;13.32;;;12.13;;
58982;SDS011;44771;49.982;8.560;2022-12-29T00:42:04;13.23;;;12.23;;
58982;SDS011;44771;49.982;8.560;2022-12-29T00:47:06;12.15;;;11.35;;
58982;SDS011;44771;49.982;8.560;2022-12-29T00:52:18;11.43;;;10.70;;
58982;SDS011;44771;49.982;8.560;2022-12-29T00:57:25;12.50;;;11.38;;
58982;SDS011;44771;49.982;8.560;2022-12-29T01:02:27;12.50;;;11.63;;
58982;SDS011;44771;49.982;8.560;2022-12-29T01:07:31;12.43;;;11.50;;
58982;SDS011;44771;49.982;8.560;2022-12-29T01:12:33;12.77;;;11.80;;
58982;SDS011;44771;49.982;8.560;2022-12-29T01:17:35;12.82;;;11.80;;
58982;SDS011;44771;49.982;8.560;2022-12-29T01:22:38;12.27;;;11.30;;
58982;SDS011;44771;49.982;8.560;2022-12-29T01:27:40;11.98;;;11.18;;
58982;SDS011;44771;49.982;8.560;2022-12-29T01:32:42;12.27;;;11.32;;
58982;SDS011;44771;49.982;8.560;2022-12-29T01:37:45;11.88;;;11.02;;
58982;SDS011;44771;49.982;8.560;2022-12-29T01:42:46;11.73;;;10.98;;
58982;SDS011;44771;49.982;8.560;2022-12-29T01:47:49;11.90;;;11.10;;
58982;SDS011;44771;49.982;8.560;2022-12-29T01:52:56;11.52;;;10.90;;
58982;SDS011;44771;49.982;8.560;2022-12-29T01:58:01;11.98;;;10.88;;
58982;SDS011;44771;49.982;8.560;2022-12-29T02:03:05;12.02;;;11.15;;
58982;SDS011;44771;49.982;8.560;2022-12-29T02:08:10;11.18;;;10.57;;
58982;SDS011;44771;49.982;8.560;2022-12-29T02:13:14;11.32;;;10.73;;
58982;SDS011;44771;49.982;8.560;2022-12-29T02:18:21;12.57;;;11.60;;
58982;SDS011;44771;49.982;8.560;2022-12-29T02:29:23;11.43;;;10.82;;
58982;SDS011;44771;49.982;8.560;2022-12-29T02:34:45;10.50;;;9.90;;
58982;SDS011;44771;49.982;8.560;2022-12-29T02:39:55;11.20;;;10.57;;
58982;SDS011;44771;49.982;8.560;2022-12-29T02:45:03;11.10;;;10.50;;
58982;SDS011;44771;49.982;8.560;2022-12-29T02:50:11;11.75;;;11.05;;
58982;SDS011;44771;49.982;8.560;2022-12-29T02:55:18;11.00;;;10.38;;
58982;SDS011;44771;49.982;8.560;2022-12-29T03:00:20;10.90;;;10.10;;
58982;SDS011;44771;49.982;8.560;2022-12-29T03:05:25;11.05;;;10.32;;
58982;SDS011;44771;49.982;8.560;2022-12-29T03:10:41;12.60;;;11.70;;
58982;SDS011;44771;49.982;8.560;2022-12-29T03:15:50;11.70;;;11.07;;
58982;SDS011;44771;49.982;8.560;2022-12-29T03:21:00;11.30;;;10.70;;
58982;SDS011;44771;49.982;8.560;2022-12-29T03:26:06;12.07;;;11.00;;
58982;SDS011;44771;49.982;8.560;2022-12-29T03:31:11;11.75;;;10.88;;
58982;SDS011;44771;49.982;8.560;2022-12-29T03:36:19;12.07;;;10.80;;
58982;SDS011;44771;49.982;8.560;2022-12-29T03:41:28;10.95;;;10.35;;
58982;SDS011;44771;49.982;8.560;2022-12-29T03:46:34;11.88;;;11.18;;
58982;SDS011;44771;49.982;8.560;2022-12-29T03:51:38;10.75;;;10.05;;
58982;SDS011;44771;49.982;8.560;2022-12-29T03:56:39;11.38;;;10.63;;
58982;SDS011;44771;49.982;8.560;2022-12-29T04:01:41;11.50;;;10.73;;
58982;SDS011;44771;49.982;8.560;2022-12-29T04:06:45;12.45;;;11.45;;
58982;SDS011;44771;49.982;8.560;2022-12-29T04:11:46;12.57;;;11.55;;
58982;SDS011;44771;49.982;8.560;2022-12-29T04:16:48;11.90;;;11.05;;
58982;SDS011;44771;49.982;8.560;2022-12-29T04:21:51;11.18;;;10.07;;
58982;SDS011;44771;49.982;8.560;2022-12-29T04:26:53;11.50;;;10.75;;
58982;SDS011;44771;49.982;8.560;2022-12-29T04:31:55;11.80;;;10.98;;
58982;SDS011;44771;49.982;8.560;2022-12-29T04:36:58;11.93;;;11.23;;
58982;SDS011;44771;49.982;8.560;2022-12-29T04:41:59;12.13;;;11.00;;
58982;SDS011;44771;49.982;8.560;2022-12-29T04:47:01;11.32;;;10.38;;
58982;SDS011;44771;49.982;8.560;2022-12-29T04:52:04;12.00;;;11.15;;
58982;SDS011;44771;49.982;8.560;2022-12-29T04:57:06;11.93;;;11.15;;
58982;SDS011;44771;49.982;8.560;2022-12-29T05:02:08;11.88;;;11.10;;
58982;SDS011;44771;49.982;8.560;2022-12-29T05:07:11;11.38;;;10.57;;
58982;SDS011;44771;49.982;8.560;2022-12-29T05:12:13;11.57;;;10.77;;
58982;SDS011;44771;49.982;8.560;2022-12-29T05:17:15;10.77;;;10.18;;
58982;SDS011;44771;49.982;8.560;2022-12-29T05:22:18;11.30;;;10.57;;
58982;SDS011;44771;49.982;8.560;2022-12-29T05:27:20;11.80;;;10.82;;
58982;SDS011;44771;49.982;8.560;2022-12-29T05:32:22;11.43;;;10.65;;
58982;SDS011;44771;49.982;8.560;2022-12-29T05:37:25;11.60;;;10.68;;
58982;SDS011;44771;49.982;8.560;2022-12-29T05:42:27;11.48;;;10.77;;
58982;SDS011;44771;49.982;8.560;2022-12-29T05:47:28;11.57;;;10.77;;
58982;SDS011;44771;49.982;8.560;2022-12-29T05:52:32;12.32;;;11.43;;
58982;SDS011;44771;49.982;8.560;2022-12-29T05:57:33;10.57;;;9.98;;
58982;SDS011;44771;49.982;8.560;2022-12-29T06:02:35;11.70;;;10.98;;
58982;SDS011;44771;49.982;8.560;2022-12-29T06:07:39;11.25;;;10.45;;
58982;SDS011;44771;49.982;8.560;2022-12-29T06:12:41;12.00;;;11.40;;
58982;SDS011;44771;49.982;8.560;2022-12-29T06:17:42;11.85;;;11.12;;
58982;SDS011;44771;49.982;8.560;2022-12-29T06:22:46;12.13;;;11.20;;
58982;SDS011;44771;49.982;8.560;2022-12-29T06:27:47;12.13;;;11.20;;
58982;SDS011;44771;49.982;8.560;2022-12-29T06:32:49;11.23;;;10.40;;
58982;SDS011;44771;49.982;8.560;2022-12-29T06:37:52;11.80;;;11.12;;
58982;SDS011;44771;49.982;8.560;2022-12-29T06:42:54;12.05;;;11.02;;
58982;SDS011;44771;49.982;8.560;2022-12-29T06:47:56;12.52;;;11.27;;
58982;SDS011;44771;49.982;8.560;2022-12-29T06:52:59;12.32;;;11.15;;
58982;SDS011;44771;49.982;8.560;2022-12-29T06:58:01;12.10;;;11.32;;
58982;SDS011;44771;49.982;8.560;2022-12-29T07:03:02;12.07;;;11.07;;
58982;SDS011;44771;49.982;8.560;2022-12-29T07:08:06;11.93;;;11.12;;
58982;SDS011;44771;49.982;8.560;2022-12-29T07:13:07;11.57;;;10.90;;
58982;SDS011;44771;49.982;8.560;2022-12-29T07:18:09;12.23;;;11.30;;
58982;SDS011;44771;49.982;8.560;2022-12-29T07:23:13;12.65;;;11.60;;
58982;SDS011;44771;49.982;8.560;2022-12-29T07:28:15;12.00;;;11.02;;
58982;SDS011;44771;49.982;8.560;2022-12-29T07:33:17;12.37;;;11.65;;
58982;SDS011;44771;49.982;8.560;2022-12-29T07:38:20;11.98;;;11.07;;
58982;SDS011;44771;49.982;8.560;2022-12-29T07:43:22;12.15;;;11.30;;
58982;SDS011;44771;49.982;8.560;2022-12-29T07:48:24;12.20;;;11.40;;
58982;SDS011;44771;49.982;8.560;2022-12-29T07:53:27;16.08;;;12.75;;
58982;SDS011;44771;49.982;8.560;2022-12-29T07:58:28;11.98;;;11.23;;
58982;SDS011;44771;49.982;8.560;2022-12-29T08:03:30;12.57;;;11.68;;
58982;SDS011;44771;49.982;8.560;2022-12-29T08:08:33;13.52;;;12.10;;
58982;SDS011;44771;49.982;8.560;2022-12-29T08:13:35;12.48;;;11.48;;
58982;SDS011;44771;49.982;8.560;2022-12-29T08:18:37;12.27;;;11.48;;
58982;SDS011;44771;49.982;8.560;2022-12-29T08:23:40;11.82;;;11.02;;
58982;SDS011;44771;49.982;8.560;2022-12-29T08:28:42;11.65;;;10.82;;
58982;SDS011;44771;49.982;8.560;2022-12-29T08:33:43;12.85;;;11.68;;
58982;SDS011;44771;49.982;8.560;2022-12-29T08:38:48;12.23;;;11.43;;
58982;SDS011;44771;49.982;8.560;2022-12-29T08:48:52;12.55;;;11.68;;
58982;SDS011;44771;49.982;8.560;2022-12-29T08:53:56;12.37;;;11.23;;
58982;SDS011;44771;49.982;8.560;2022-12-29T08:58:58;12.52;;;11.65;;
58982;SDS011;44771;49.982;8.560;2022-12-29T09:03:59;13.20;;;11.85;;
58982;SDS011;44771;49.982;8.560;2022-12-29T09:09:17;12.95;;;11.82;;
58982;SDS011;44771;49.982;8.560;2022-12-29T09:14:19;13.07;;;11.90;;
58982;SDS011;44771;49.982;8.560;2022-12-29T09:19:21;13.02;;;11.95;;
58982;SDS011;44771;49.982;8.560;2022-12-29T09:24:24;12.75;;;11.85;;
58982;SDS011;44771;49.982;8.560;2022-12-29T09:29:25;12.30;;;11.50;;
58982;SDS011;44771;49.982;8.560;2022-12-29T09:34:27;13.02;;;12.13;;
58982;SDS011;44771;49.982;8.560;2022-12-29T09:39:30;13.57;;;12.30;;
58982;SDS011;44771;49.982;8.560;2022-12-29T09:44:37;13.55;;;12.45;;
58982;SDS011;44771;49.982;8.560;2022-12-29T09:49:53;13.75;;;12.75;;
58982;SDS011;44771;49.982;8.560;2022-12-29T09:55:00;14.40;;;13.02;;
58982;SDS011;44771;49.982;8.560;2022-12-29T10:00:11;13.02;;;11.77;;
58982;SDS011;44771;49.982;8.560;2022-12-29T10:05:18;15.00;;;12.82;;
58982;SDS011;44771;49.982;8.560;2022-12-29T10:10:31;14.38;;;13.00;;
58982;SDS011;44771;49.982;8.560;2022-12-29T10:15:40;12.15;;;11.30;;
58982;SDS011;44771;49.982;8.560;2022-12-29T10:20:52;12.55;;;11.50;;
58982;SDS011;44771;49.982;8.560;2022-12-29T10:25:59;11.63;;;10.68;;
58982;SDS011;44771;49.982;8.560;2022-12-29T10:31:04;11.55;;;10.80;;
58982;SDS011;44771;49.982;8.560;2022-12-29T10:36:11;11.85;;;11.05;;
58982;SDS011;44771;49.982;8.560;2022-12-29T10:41:18;10.85;;;10.07;;
58982;SDS011;44771;49.982;8.560;2022-12-29T10:46:25;11.40;;;10.60;;
58982;SDS011;44771;49.982;8.560;2022-12-29T10:51:35;11.18;;;9.75;;
58982;SDS011;44771;49.982;8.560;2022-12-29T10:56:43;11.18;;;10.35;;
58982;SDS011;44771;49.982;8.560;2022-12-29T11:01:49;10.02;;;9.43;;
58982;SDS011;44771;49.982;8.560;2022-12-29T11:06:58;10.75;;;9.95;;
58982;SDS011;44771;49.982;8.560;2022-12-29T11:12:07;11.10;;;10.32;;
58982;SDS011;44771;49.982;8.560;2022-12-29T11:17:20;10.77;;;9.95;;
58982;SDS011;44771;49.982;8.560;2022-12-29T11:22:23;10.68;;;9.80;;
58982;SDS011;44771;49.982;8.560;2022-12-29T11:27:27;10.85;;;9.98;;
58982;SDS011;44771;49.982;8.560;2022-12-29T11:32:29;11.02;;;9.90;;
58982;SDS011;44771;49.982;8.560;2022-12-29T11:37:31;10.77;;;9.40;;
58982;SDS011;44771;49.982;8.560;2022-12-29T11:42:40;9.93;;;9.23;;
58982;SDS011;44771;49.982;8.560;2022-12-29T11:47:50;9.80;;;9.07;;
58982;SDS011;44771;49.982;8.560;2022-12-29T11:52:57;9.05;;;8.55;;
58982;SDS011;44771;49.982;8.560;2022-12-29T11:58:02;10.30;;;9.70;;
58982;SDS011;44771;49.982;8.560;2022-12-29T12:03:07;10.18;;;9.57;;
58982;SDS011;44771;49.982;8.560;2022-12-29T12:08:17;10.77;;;9.98;;
58982;SDS011;44771;49.982;8.560;2022-12-29T12:13:27;9.75;;;9.15;;
58982;SDS011;44771;49.982;8.560;2022-12-29T12:18:37;10.63;;;9.60;;
58982;SDS011;44771;49.982;8.560;2022-12-29T12:23:47;10.00;;;9.30;;
58982;SDS011;44771;49.982;8.560;2022-12-29T12:29:20;10.63;;;9.93;;
58982;SDS011;44771;49.982;8.560;2022-12-29T12:34:36;10.00;;;9.40;;
58982;SDS011;44771;49.982;8.560;2022-12-29T12:44:48;10.88;;;10.07;;
58982;SDS011;44771;49.982;8.560;2022-12-29T12:55:35;11.32;;;10.48;;
58982;SDS011;44771;49.982;8.560;2022-12-29T13:00:53;11.52;;;10.63;;
58982;SDS011;44771;49.982;8.560;2022-12-29T13:06:12;10.73;;;10.00;;
58982;SDS011;44771;49.982;8.560;2022-12-29T13:11:22;10.82;;;10.20;;
58982;SDS011;44771;49.982;8.560;2022-12-29T13:16:34;10.73;;;9.90;;
58982;SDS011;44771;49.982;8.560;2022-12-29T13:21:45;10.63;;;9.88;;
58982;SDS011;44771;49.982;8.560;2022-12-29T13:27:05;11.18;;;10.30;;
58982;SDS011;44771;49.982;8.560;2022-12-29T13:32:20;10.90;;;10.20;;
58982;SDS011;44771;49.982;8.560;2022-12-29T13:37:30;11.87;;;11.03;;
58982;SDS011;44771;49.982;8.560;2022-12-29T13:42:36;10.80;;;10.00;;
58982;SDS011;44771;49.982;8.560;2022-12-29T13:47:40;11.38;;;10.63;;
58982;SDS011;44771;49.982;8.560;2022-12-29T13:52:45;11.40;;;10.75;;
58982;SDS011;44771;49.982;8.560;2022-12-29T13:57:55;12.50;;;11.40;;
58982;SDS011;44771;49.982;8.560;2022-12-29T14:03:12;11.52;;;10.65;;
58982;SDS011;44771;49.982;8.560;2022-12-29T14:08:31;11.05;;;10.25;;
58982;SDS011;44771;49.982;8.560;2022-12-29T14:13:37;11.82;;;11.10;;
58982;SDS011;44771;49.982;8.560;2022-12-29T14:18:43;11.32;;;10.52;;
58982;SDS011;44771;49.982;8.560;2022-12-29T14:23:45;11.45;;;10.55;;
58982;SDS011;44771;49.982;8.560;2022-12-29T14:45:32;10.73;;;10.02;;
58982;SDS011;44771;49.982;8.560;2022-12-29T14:50:35;11.73;;;10.50;;
58982;SDS011;44771;49.982;8.560;2022-12-29T14:55:43;14.23;;;13.00;;
58982;SDS011;44771;49.982;8.560;2022-12-29T15:00:51;11.63;;;10.82;;
58982;SDS011;44771;49.982;8.560;2022-12-29T15:05:54;10.95;;;10.25;;
58982;SDS011;44771;49.982;8.560;2022-12-29T15:11:00;11.25;;;10.55;;
58982;SDS011;44771;49.982;8.560;2022-12-29T15:16:17;11.52;;;10.68;;
58982;SDS011;44771;49.982;8.560;2022-12-29T15:21:24;11.38;;;10.65;;
58982;SDS011;44771;49.982;8.560;2022-12-29T15:26:37;13.00;;;11.43;;
58982;SDS011;44771;49.982;8.560;2022-12-29T15:31:45;11.57;;;10.48;;
58982;SDS011;44771;49.982;8.560;2022-12-29T15:36:49;11.45;;;10.63;;
58982;SDS011;44771;49.982;8.560;2022-12-29T15:41:53;11.95;;;11.05;;
58982;SDS011;44771;49.982;8.560;2022-12-29T15:46:57;13.57;;;12.40;;
58982;SDS011;44771;49.982;8.560;2022-12-29T15:52:05;11.90;;;10.82;;
58982;SDS011;44771;49.982;8.560;2022-12-29T15:57:14;12.43;;;11.50;;
58982;SDS011;44771;49.982;8.560;2022-12-29T16:02:23;11.75;;;10.95;;
58982;SDS011;44771;49.982;8.560;2022-12-29T16:07:27;11.77;;;10.60;;
58982;SDS011;44771;49.982;8.560;2022-12-29T16:12:37;12.75;;;11.85;;
58982;SDS011;44771;49.982;8.560;2022-12-29T16:17:48;11.93;;;11.00;;
58982;SDS011;44771;49.982;8.560;2022-12-29T16:22:53;12.73;;;11.55;;
58982;SDS011;44771;49.982;8.560;2022-12-29T16:27:59;12.82;;;11.88;;
58982;SDS011;44771;49.982;8.560;2022-12-29T16:33:05;13.27;;;12.13;;
58982;SDS011;44771;49.982;8.560;2022-12-29T16:38:17;13.90;;;11.30;;
58982;SDS011;44771;49.982;8.560;2022-12-29T16:43:30;12.52;;;11.70;;
58982;SDS011;44771;49.982;8.560;2022-12-29T16:54:55;12.43;;;11.63;;
58982;SDS011;44771;49.982;8.560;2022-12-29T16:59:59;12.45;;;11.50;;
58982;SDS011;44771;49.982;8.560;2022-12-29T17:05:11;12.20;;;11.18;;
58982;SDS011;44771;49.982;8.560;2022-12-29T17:10:14;13.38;;;12.27;;
58982;SDS011;44771;49.982;8.560;2022-12-29T17:15:19;12.07;;;10.90;;
58982;SDS011;44771;49.982;8.560;2022-12-29T17:20:28;12.20;;;11.45;;
58982;SDS011;44771;49.982;8.560;2022-12-29T17:25:34;12.45;;;11.35;;
58982;SDS011;44771;49.982;8.560;2022-12-29T17:41:42;12.77;;;11.90;;
58982;SDS011;44771;49.982;8.560;2022-12-29T18:20:32;14.68;;;11.98;;
58982;SDS011;44771;49.982;8.560;2022-12-29T19:05:24;13.70;;;12.10;;
58982;SDS011;44771;49.982;8.560;2022-12-29T19:22:08;12.60;;;11.48;;
58982;SDS011;44771;49.982;8.560;2022-12-29T19:32:39;12.60;;;11.50;;
58982;SDS011;44771;49.982;8.560;2022-12-29T19:37:41;14.27;;;11.63;;
58982;SDS011;44771;49.982;8.560;2022-12-29T19:42:42;13.60;;;11.50;;
58982;SDS011;44771;49.982;8.560;2022-12-29T19:47:46;13.52;;;12.13;;
58982;SDS011;44771;49.982;8.560;2022-12-29T19:52:48;12.93;;;11.85;;
58982;SDS011;44771;49.982;8.560;2022-12-29T20:03:25;17.45;;;11.70;;
58982;SDS011;44771;49.982;8.560;2022-12-29T20:08:27;13.35;;;11.80;;
58982;SDS011;44771;49.982;8.560;2022-12-29T20:13:44;12.93;;;11.38;;
58982;SDS011;44771;49.982;8.560;2022-12-29T20:18:48;12.52;;;11.32;;
58982;SDS011;44771;49.982;8.560;2022-12-29T20:23:51;13.82;;;10.98;;
58982;SDS011;44771;49.982;8.560;2022-12-29T20:28:54;12.60;;;11.45;;
58982;SDS011;44771;49.982;8.560;2022-12-29T20:34:00;11.70;;;10.80;;
58982;SDS011;44771;49.982;8.560;2022-12-29T20:39:05;12.90;;;11.90;;
58982;SDS011;44771;49.982;8.560;2022-12-29T20:55:39;17.25;;;14.18;;
58982;SDS011;44771;49.982;8.560;2022-12-29T21:38:51;15.52;;;13.48;;
58982;SDS011;44771;49.982;8.560;2022-12-29T21:43:53;15.20;;;13.00;;
58982;SDS011;44771;49.982;8.560;2022-12-29T21:49:09;16.75;;;12.82;;
58982;SDS011;44771;49.982;8.560;2022-12-29T21:54:16;13.95;;;12.52;;
58982;SDS011;44771;49.982;8.560;2022-12-29T21:59:21;14.77;;;12.25;;
58982;SDS011;44771;49.982;8.560;2022-12-29T22:04:33;13.60;;;12.30;;
58982;SDS011;44771;49.982;8.560;2022-12-29T22:09:43;19.10;;;12.45;;
58982;SDS011;44771;49.982;8.560;2022-12-29T22:15:14;16.08;;;12.27;;
58982;SDS011;44771;49.982;8.560;2022-12-29T22:20:14;15.20;;;11.85;;
58982;SDS011;44771;49.982;8.560;2022-12-29T22:25:30;14.32;;;12.13;;
58982;SDS011;44771;49.982;8.560;2022-12-29T22:30:44;16.35;;;11.18;;
58982;SDS011;44771;49.982;8.560;2022-12-29T22:36:16;12.73;;;11.38;;
58982;SDS011;44771;49.982;8.560;2022-12-29T22:41:25;16.23;;;12.07;;
58982;SDS011;44771;49.982;8.560;2022-12-29T22:46:53;13.95;;;11.63;;
58982;SDS011;44771;49.982;8.560;2022-12-29T22:51:59;15.48;;;12.15;;
58982;SDS011;44771;49.982;8.560;2022-12-29T22:57:03;13.60;;;12.40;;
58982;SDS011;44771;49.982;8.560;2022-12-29T23:02:05;17.98;;;12.57;;
58982;SDS011;44771;49.982;8.560;2022-12-29T23:07:08;15.13;;;12.27;;
58982;SDS011;44771;49.982;8.560;2022-12-29T23:12:11;13.18;;;11.75;;
58982;SDS011;44771;49.982;8.560;2022-12-29T23:17:16;13.38;;;11.57;;
58982;SDS011;44771;49.982;8.560;2022-12-29T23:22:20;12.88;;;11.48;;
58982;SDS011;44771;49.982;8.560;2022-12-29T23:27:31;13.45;;;11.40;;
58982;SDS011;44771;49.982;8.560;2022-12-29T23:32:35;15.45;;;12.00;;
58982;SDS011;44771;49.982;8.560;2022-12-29T23:37:36;24.27;;;13.68;;
58982;SDS011;44771;49.982;8.560;2022-12-29T23:42:47;19.23;;;12.13;;
58982;SDS011;44771;49.982;8.560;2022-12-29T23:48:12;16.27;;;11.55;;
58982;SDS011;44771;49.982;8.560;2022-12-29T23:53:14;17.90;;;12.60;;
58982;SDS011;44771;49.982;8.560;2022-12-29T23:58:18;14.70;;;12.68;;
